Oakfield, Tennessee
Current Conditions -  °F | °C
As of 1:53 PM on Sunday 21 Dec 2014 (Local Time) from KMKL Reporting Station
Clear Clear  
Wind Chill: 53°   Ceiling: Unl
Heat Index: 53°   Visibility: 10mi
Dew Point: 30°   Wind: 5mph
Humidity: 41%   Direction: NA
Pressure: 30.07"   Gusts: NA
Location:  35.72°N, 88.8°W
Report Text: KMKL 211953Z VRB04KT 10SM CLR 12/M01 A3007 RMK AO2 SLP185 T01171011
Loading
Personal Weather Stations






























Interactive Weather Map New forecast layout! Learn more

10-Day Weather Forecast

Advertisements
Track Severe Weather on mobile